sensor_id;sensor_type;location;lat;lon;timestamp;P1;durP1;ratioP1;P2;durP2;ratioP2
25984;SDS011;66753;53.848;10.658;2023-05-23T00:08:30;9.33;;;5.20;;
25984;SDS011;66753;53.848;10.658;2023-05-23T00:23:32;6.57;;;5.20;;
25984;SDS011;66753;53.848;10.658;2023-05-23T00:38:33;7.17;;;5.47;;
25984;SDS011;66753;53.848;10.658;2023-05-23T00:53:35;9.03;;;5.70;;
25984;SDS011;66753;53.848;10.658;2023-05-23T01:08:37;8.27;;;5.90;;
25984;SDS011;66753;53.848;10.658;2023-05-23T01:38:58;7.77;;;5.57;;
25984;SDS011;66753;53.848;10.658;2023-05-23T01:54:00;7.73;;;6.73;;
25984;SDS011;66753;53.848;10.658;2023-05-23T02:09:01;8.27;;;5.80;;
25984;SDS011;66753;53.848;10.658;2023-05-23T02:24:03;8.90;;;6.17;;
25984;SDS011;66753;53.848;10.658;2023-05-23T02:39:04;9.27;;;6.57;;
25984;SDS011;66753;53.848;10.658;2023-05-23T02:54:06;9.37;;;7.27;;
25984;SDS011;66753;53.848;10.658;2023-05-23T03:09:08;9.77;;;7.07;;
25984;SDS011;66753;53.848;10.658;2023-05-23T03:24:09;8.53;;;7.20;;
25984;SDS011;66753;53.848;10.658;2023-05-23T03:39:10;9.53;;;6.60;;
25984;SDS011;66753;53.848;10.658;2023-05-23T03:54:12;10.83;;;7.80;;
25984;SDS011;66753;53.848;10.658;2023-05-23T04:09:13;10.47;;;7.30;;
25984;SDS011;66753;53.848;10.658;2023-05-23T04:24:14;12.60;;;8.30;;
25984;SDS011;66753;53.848;10.658;2023-05-23T04:39:16;13.43;;;8.37;;
25984;SDS011;66753;53.848;10.658;2023-05-23T04:54:17;11.10;;;8.50;;
25984;SDS011;66753;53.848;10.658;2023-05-23T05:09:18;13.17;;;9.13;;
25984;SDS011;66753;53.848;10.658;2023-05-23T05:24:21;10.50;;;8.43;;
25984;SDS011;66753;53.848;10.658;2023-05-23T05:39:23;15.57;;;9.87;;
25984;SDS011;66753;53.848;10.658;2023-05-23T05:54:28;13.87;;;9.10;;
25984;SDS011;66753;53.848;10.658;2023-05-23T06:09:30;11.80;;;8.50;;
25984;SDS011;66753;53.848;10.658;2023-05-23T06:24:31;10.47;;;7.70;;
25984;SDS011;66753;53.848;10.658;2023-05-23T06:39:33;15.97;;;10.03;;
25984;SDS011;66753;53.848;10.658;2023-05-23T06:54:35;31.70;;;16.43;;
25984;SDS011;66753;53.848;10.658;2023-05-23T07:09:37;45.03;;;21.60;;
25984;SDS011;66753;53.848;10.658;2023-05-23T07:24:39;41.93;;;20.73;;
25984;SDS011;66753;53.848;10.658;2023-05-23T07:39:41;30.87;;;15.67;;
25984;SDS011;66753;53.848;10.658;2023-05-23T07:54:42;11.87;;;8.17;;
25984;SDS011;66753;53.848;10.658;2023-05-23T08:09:44;7.63;;;4.80;;
25984;SDS011;66753;53.848;10.658;2023-05-23T08:24:45;7.07;;;4.33;;
25984;SDS011;66753;53.848;10.658;2023-05-23T08:39:46;7.17;;;4.90;;
25984;SDS011;66753;53.848;10.658;2023-05-23T08:54:48;8.03;;;4.83;;
25984;SDS011;66753;53.848;10.658;2023-05-23T09:09:50;8.77;;;5.23;;
25984;SDS011;66753;53.848;10.658;2023-05-23T09:24:52;7.50;;;4.60;;
25984;SDS011;66753;53.848;10.658;2023-05-23T09:39:56;8.43;;;4.30;;
25984;SDS011;66753;53.848;10.658;2023-05-23T09:54:59;4.37;;;2.60;;
25984;SDS011;66753;53.848;10.658;2023-05-23T10:10:04;6.07;;;3.77;;
25984;SDS011;66753;53.848;10.658;2023-05-23T10:25:11;5.23;;;2.93;;
25984;SDS011;66753;53.848;10.658;2023-05-23T10:40:27;7.80;;;3.97;;
25984;SDS011;66753;53.848;10.658;2023-05-23T10:55:34;4.90;;;2.47;;
25984;SDS011;66753;53.848;10.658;2023-05-23T11:10:58;2.33;;;1.27;;
25984;SDS011;66753;53.848;10.658;2023-05-23T11:26:01;5.67;;;1.87;;
25984;SDS011;66753;53.848;10.658;2023-05-23T11:41:02;4.27;;;2.17;;
25984;SDS011;66753;53.848;10.658;2023-05-23T11:56:05;5.47;;;2.60;;
25984;SDS011;66753;53.848;10.658;2023-05-23T12:11:07;7.33;;;2.70;;
25984;SDS011;66753;53.848;10.658;2023-05-23T12:26:08;6.37;;;3.23;;
25984;SDS011;66753;53.848;10.658;2023-05-23T12:41:16;6.57;;;2.10;;
25984;SDS011;66753;53.848;10.658;2023-05-23T12:56:20;7.93;;;2.10;;
25984;SDS011;66753;53.848;10.658;2023-05-23T13:11:21;6.47;;;1.80;;
25984;SDS011;66753;53.848;10.658;2023-05-23T13:26:23;7.17;;;2.30;;
25984;SDS011;66753;53.848;10.658;2023-05-23T13:41:25;5.93;;;2.03;;
25984;SDS011;66753;53.848;10.658;2023-05-23T13:56:26;6.47;;;2.00;;
25984;SDS011;66753;53.848;10.658;2023-05-23T14:11:28;9.17;;;2.23;;
25984;SDS011;66753;53.848;10.658;2023-05-23T14:26:30;6.33;;;1.97;;
25984;SDS011;66753;53.848;10.658;2023-05-23T14:41:32;8.03;;;2.07;;
25984;SDS011;66753;53.848;10.658;2023-05-23T14:56:34;6.63;;;2.00;;
25984;SDS011;66753;53.848;10.658;2023-05-23T15:11:38;7.63;;;2.03;;
25984;SDS011;66753;53.848;10.658;2023-05-23T15:26:42;9.13;;;1.93;;
25984;SDS011;66753;53.848;10.658;2023-05-23T15:41:44;7.73;;;1.67;;
25984;SDS011;66753;53.848;10.658;2023-05-23T15:56:46;10.47;;;1.77;;
25984;SDS011;66753;53.848;10.658;2023-05-23T16:11:47;10.40;;;2.07;;
25984;SDS011;66753;53.848;10.658;2023-05-23T16:26:48;6.23;;;1.40;;
25984;SDS011;66753;53.848;10.658;2023-05-23T16:41:50;5.10;;;1.33;;
25984;SDS011;66753;53.848;10.658;2023-05-23T16:56:51;4.37;;;1.20;;
25984;SDS011;66753;53.848;10.658;2023-05-23T17:11:52;10.30;;;1.33;;
25984;SDS011;66753;53.848;10.658;2023-05-23T17:26:54;8.87;;;2.43;;
25984;SDS011;66753;53.848;10.658;2023-05-23T17:41:55;7.63;;;1.67;;
25984;SDS011;66753;53.848;10.658;2023-05-23T17:56:57;7.77;;;1.50;;
25984;SDS011;66753;53.848;10.658;2023-05-23T18:11:58;7.47;;;1.47;;
25984;SDS011;66753;53.848;10.658;2023-05-23T18:27:03;6.33;;;1.70;;
25984;SDS011;66753;53.848;10.658;2023-05-23T18:42:04;10.10;;;1.57;;
25984;SDS011;66753;53.848;10.658;2023-05-23T18:57:06;8.27;;;1.37;;
25984;SDS011;66753;53.848;10.658;2023-05-23T19:12:08;9.37;;;1.73;;
25984;SDS011;66753;53.848;10.658;2023-05-23T19:27:09;6.87;;;1.23;;
25984;SDS011;66753;53.848;10.658;2023-05-23T19:42:11;7.13;;;1.37;;
25984;SDS011;66753;53.848;10.658;2023-05-23T19:57:12;14.33;;;2.30;;
25984;SDS011;66753;53.848;10.658;2023-05-23T20:12:13;7.90;;;1.33;;
25984;SDS011;66753;53.848;10.658;2023-05-23T20:27:15;13.23;;;2.27;;
25984;SDS011;66753;53.848;10.658;2023-05-23T20:42:16;10.87;;;1.80;;
25984;SDS011;66753;53.848;10.658;2023-05-23T20:57:18;5.93;;;1.73;;
25984;SDS011;66753;53.848;10.658;2023-05-23T21:12:21;11.93;;;2.10;;
25984;SDS011;66753;53.848;10.658;2023-05-23T21:27:22;7.57;;;1.93;;
25984;SDS011;66753;53.848;10.658;2023-05-23T21:42:23;14.27;;;2.37;;
25984;SDS011;66753;53.848;10.658;2023-05-23T21:57:24;11.93;;;2.53;;
25984;SDS011;66753;53.848;10.658;2023-05-23T22:12:26;7.53;;;1.63;;
25984;SDS011;66753;53.848;10.658;2023-05-23T22:27:27;9.37;;;2.17;;
25984;SDS011;66753;53.848;10.658;2023-05-23T22:42:29;8.37;;;2.17;;
